Météo Nord-Pas-de-Calais   La météo au plus près de chez vous

Station météorologique

Observations météo à Auch (32013)

32013005 122 m Dernier relevé à 20:36
24.8°C
Humidité 48 % Vent 9 km/h 1020.7 hPa

Journée consultée

Lundi 31 Août 2026

Synthèse de la journée

Périodes de référence en UTC

Température maximale

27.8°C

à 16:00

06h 06h

Température minimale

19.8°C

à 07:18

18h 18h

Rafale maximale

22 km/h

à 12:00

00h 00h

Précipitations

0 mm

Cumul quotidien

06h 06h

Ensoleillement

3h 1 mins

Durée quotidienne

00h 00h

Graphiques de la journée

Heure locale Réduire

Données détaillées

Relevés météo

Pas de 6 minutes Afficher les relevés infra-horaires
Relevés météo détaillés à Auch pour le Lundi 31 Août 2026
Heure Température °C Point de rosée °C Humidité % Vent moyen (raf.), km/h Précipitations mm Température à 10 cm °C Température à 20 cm °C Température à 50 cm °C Température à 100 cm °C Visibilité m État du sol   Hauteur neige cm Ensoleillement min Rayonnement global W/m² Pression hPa
20:36 24.8 °C 14 °C 51 % 5 km/h (11 km/h) 0 mm0 mm 24.9 °C 24.1 °C 22.9 °C 21.8 °C 20000 m 0   0 cm 0 min 0 W/m² 1020.9 hPa
20:30 24.8 °C 14 °C 51 % 5 km/h (11 km/h) 0 mm0 mm 24.8 °C 24.1 °C 23 °C 21.9 °C 20000 m 0   0 cm 0 min 0 W/m² 1021 hPa
20:24 24.9 °C 13.8 °C 50 % 5 km/h (9 km/h) 0 mm0 mm 24.9 °C 24 °C 22.9 °C 21.8 °C 20000 m 0   0 cm 0 min 0 W/m² 1020.9 hPa
20:18 24.9 °C 13.8 °C 50 % 6 km/h (14 km/h) 0 mm0 mm 24.9 °C 24 °C 22.9 °C 21.8 °C 20000 m 0   0 cm 0 min 0 W/m² 1020.9 hPa
20:12 25 °C 13.9 °C 50 % 8 km/h (14 km/h) 0 mm0 mm 24.9 °C 24 °C 22.9 °C 21.8 °C 20000 m 0   0 cm 0 min 0 W/m² 1020.8 hPa
20:06 25.1 °C 13.6 °C 49 % 7 km/h (13 km/h) 0 mm0 mm 24.9 °C 24.1 °C 23 °C 21.9 °C 20000 m 0   0 cm 0 min 2.6 W/m² 1020.8 hPa
20:00 25.2 °C 13.7 °C 49 % 5 km/h (10 km/h) 0 mm0 mm 24.9 °C 24 °C 22.9 °C 21.8 °C 20000 m 0   0 cm 0 min 12.8 W/m² 1020.8 hPa
19:54 25.3 °C 13.8 °C 49 % 6 km/h (12 km/h) 0 mm0 mm 24.9 °C 24 °C 22.9 °C 21.8 °C 20000 m 0   0 cm 0 min 14.3 W/m² 1020.7 hPa
19:48 25.3 °C 13.5 °C 48 % 8 km/h (13 km/h) 0 mm0 mm 24.9 °C 24 °C 22.9 °C 21.8 °C 20000 m 0   0 cm 0 min 15 W/m² 1020.7 hPa
19:42 25.4 °C 13.9 °C 49 % 9 km/h (13 km/h) 0 mm0 mm 24.9 °C 24 °C 22.9 °C 21.8 °C 20000 m 0   0 cm 0 min 19.1 W/m² 1020.7 hPa
19:36 25.5 °C 13.7 °C 48 % 9 km/h (14 km/h) 0 mm0 mm 24.9 °C 24 °C 22.9 °C 21.8 °C 20000 m 0   0 cm 0 min 22.6 W/m² 1020.7 hPa
19:30 25.6 °C 13.8 °C 48 % 8 km/h (13 km/h) 0 mm0 mm 24.9 °C 24 °C 22.9 °C 21.8 °C 20000 m 0   0 cm 0 min 27.7 W/m² 1020.7 hPa
19:24 25.6 °C 13.8 °C 48 % 8 km/h (13 km/h) 0 mm0 mm 24.9 °C 24 °C 22.9 °C 21.8 °C 20000 m 0   0 cm 0 min 29.7 W/m² 1020.7 hPa
19:18 25.7 °C 13.9 °C 48 % 9 km/h (15 km/h) 0 mm0 mm 24.9 °C 24 °C 22.9 °C 21.8 °C 20000 m 0   0 cm 0 min 28.2 W/m² 1020.7 hPa
19:12 25.7 °C 13.9 °C 48 % 10 km/h (15 km/h) 0 mm0 mm 25 °C 24 °C 22.9 °C 21.8 °C 20000 m 0   0 cm 0 min 31.3 W/m² 1020.7 hPa
19:06 25.8 °C 14 °C 48 % 9 km/h (15 km/h) 0 mm0 mm 25 °C 24 °C 22.9 °C 21.8 °C 20000 m 0   0 cm 0 min 36.1 W/m² 1020.8 hPa
19:00 25.8 °C 14 °C 48 % 9 km/h (14 km/h) 0 mm0 mm 25 °C 24 °C 22.9 °C 21.9 °C 20000 m 0   0 cm 0 min 33.7 W/m² 1020.8 hPa
18:54 25.9 °C 14 °C 48 % 10 km/h (15 km/h) 0 mm0 mm 25 °C 24 °C 22.9 °C 21.9 °C 20000 m 0   0 cm 0 min 36.2 W/m² 1020.8 hPa
18:48 26 °C 13.8 °C 47 % 9 km/h (15 km/h) 0 mm0 mm 25 °C 23.9 °C 22.9 °C 21.8 °C 20000 m 0   0 cm 0 min 45.3 W/m² 1020.8 hPa
18:42 26 °C 13.5 °C 46 % 8 km/h (13 km/h) 0 mm0 mm 25 °C 23.9 °C 22.9 °C 21.8 °C 20000 m 0   0 cm 0 min 46.9 W/m² 1020.8 hPa
18:36 26.1 °C 13.9 °C 47 % 8 km/h (15 km/h) 0 mm0 mm 25 °C 23.9 °C 23 °C 21.9 °C 20000 m 0   0 cm 0 min 46.5 W/m² 1020.8 hPa
18:30 26.1 °C 13.6 °C 46 % 9 km/h (16 km/h) 0 mm0 mm 25 °C 23.9 °C 22.9 °C 21.8 °C 20000 m 0   0 cm 0 min 45.8 W/m² 1020.9 hPa
18:24 26.2 °C 13.3 °C 45 % 10 km/h (17 km/h) 0 mm0 mm 25 °C 23.9 °C 22.9 °C 21.8 °C 20000 m 0   0 cm 0 min 52.1 W/m² 1020.9 hPa
18:18 26.2 °C 13.3 °C 45 % 9 km/h (18 km/h) 0 mm0 mm 24.9 °C 23.9 °C 22.9 °C 21.8 °C 20000 m 0   0 cm 0 min 57.6 W/m² 1020.9 hPa
18:12 26.4 °C 13.5 °C 45 % 8 km/h (18 km/h) 0 mm0 mm 25 °C 23.9 °C 22.9 °C 21.8 °C 20000 m 0   0 cm 0 min 61.4 W/m² 1020.9 hPa
18:06 26.5 °C 13.6 °C 45 % 9 km/h (14 km/h) 0 mm0 mm 25 °C 23.9 °C 22.9 °C 21.8 °C 20000 m 0   0 cm 0 min 69.6 W/m² 1020.9 hPa
18:00 26.6 °C 13.3 °C 44 % 10 km/h (16 km/h) 0 mm0 mm 25 °C 23.8 °C 22.9 °C 21.8 °C 20000 m 0   0 cm 0 min 76.7 W/m² 1020.9 hPa
17:54 26.6 °C 13.3 °C 44 % 10 km/h (15 km/h) 0 mm0 mm 24.9 °C 23.8 °C 22.9 °C 21.8 °C 20000 m 0   0 cm 0 min 84 W/m² 1020.9 hPa
17:48 26.5 °C 12.9 °C 43 % 10 km/h (18 km/h) 0 mm0 mm 24.9 °C 23.8 °C 22.9 °C 21.8 °C 20000 m 0   0 cm 0 min 83.3 W/m² 1021 hPa
17:42 26.6 °C 13 °C 43 % 10 km/h (18 km/h) 0 mm0 mm 24.9 °C 23.8 °C 22.9 °C 21.8 °C 20000 m 0   0 cm 0 min 86.4 W/m² 1021 hPa
17:36 26.6 °C 13.3 °C 44 % 10 km/h (17 km/h) 0 mm0 mm 24.9 °C 23.8 °C 22.9 °C 21.8 °C 20000 m 0   0 cm 0 min 85.1 W/m² 1021.1 hPa
17:30 26.6 °C 13.3 °C 44 % 9 km/h (18 km/h) 0 mm0 mm 24.9 °C 23.8 °C 22.9 °C 21.8 °C 20000 m 0   0 cm 0 min 82.7 W/m² 1021.1 hPa
17:24 26.5 °C 12.9 °C 43 % 9 km/h (18 km/h) 0 mm0 mm 24.9 °C 23.8 °C 22.9 °C 21.9 °C 20000 m 0   0 cm 0 min 86.2 W/m² 1021.2 hPa
17:18 26.8 °C 12.8 °C 42 % 9 km/h (14 km/h) 0 mm0 mm 24.9 °C 23.8 °C 22.9 °C 21.8 °C 20000 m 0   0 cm 0 min 94.1 W/m² 1021.2 hPa
17:12 26.7 °C 13.4 °C 44 % 10 km/h (17 km/h) 0 mm0 mm 24.9 °C 23.8 °C 23 °C 21.9 °C 20000 m 0   0 cm 0 min 99.9 W/m² 1021.3 hPa
17:06 26.6 °C 13 °C 43 % 9 km/h (13 km/h) 0 mm0 mm 24.9 °C 23.7 °C 22.9 °C 21.8 °C 20000 m 0   0 cm 0 min 97.1 W/m² 1021.3 hPa
17:00 26.6 °C 13.3 °C 44 % 10 km/h (17 km/h) 0 mm0 mm 24.9 °C 23.7 °C 23 °C 21.9 °C 20000 m 0   0 cm 0 min 96 W/m² 1021.2 hPa
16:54 26.5 °C 12.9 °C 43 % 11 km/h (18 km/h) 0 mm0 mm 24.9 °C 23.7 °C 22.9 °C 21.8 °C 20000 m 0   0 cm 0 min 92.8 W/m² 1021.3 hPa
16:48 26.6 °C 13 °C 43 % 11 km/h (17 km/h) 0 mm0 mm 24.8 °C 23.7 °C 23 °C 21.9 °C 20000 m 0   0 cm 0 min 89.6 W/m² 1021.3 hPa
16:42 26.6 °C 13 °C 43 % 8 km/h (15 km/h) 0 mm0 mm 24.8 °C 23.6 °C 22.9 °C 21.8 °C 20000 m 0   0 cm 0 min 98.7 W/m² 1021.4 hPa
16:36 26.8 °C 12.8 °C 42 % 8 km/h (16 km/h) 0 mm0 mm 24.8 °C 23.6 °C 22.9 °C 21.8 °C 20000 m 0   0 cm 0 min 127 W/m² 1021.3 hPa
16:30 26.7 °C 12.7 °C 42 % 13 km/h (22 km/h) 0 mm0 mm 24.8 °C 23.6 °C 22.9 °C 21.8 °C 20000 m 0   0 cm 0 min 122.2 W/m² 1021.3 hPa
16:24 26.7 °C 12.4 °C 41 % 14 km/h (22 km/h) 0 mm0 mm 24.7 °C 23.6 °C 22.9 °C 21.9 °C 20000 m 0   0 cm 0 min 118.5 W/m² 1021.4 hPa
16:18 26.9 °C 12.9 °C 42 % 12 km/h (18 km/h) 0 mm0 mm 24.7 °C 23.6 °C 22.9 °C 21.8 °C 20000 m 0   0 cm 0 min 119 W/m² 1021.3 hPa
16:12 27.3 °C 12.9 °C 41 % 8 km/h (17 km/h) 0 mm0 mm 24.7 °C 23.6 °C 22.9 °C 21.8 °C 20000 m 0   0 cm 1 min 150 W/m² 1021.3 hPa
16:06 27.2 °C 13.2 °C 42 % 8 km/h (14 km/h) 0 mm0 mm 24.6 °C 23.6 °C 22.9 °C 21.8 °C 20000 m 0   0 cm 0 min 135.8 W/m² 1021.3 hPa
16:00 27.8 °C 13.7 °C 42 % 7 km/h (14 km/h) 0 mm0 mm 24.6 °C 23.5 °C 22.9 °C 21.8 °C 20000 m 0   0 cm 5 min 278.6 W/m² 1021.3 hPa
15:54 27 °C 12.6 °C 41 % 8 km/h (15 km/h) 0 mm0 mm 24.6 °C 23.6 °C 22.9 °C 21.8 °C 20000 m 0   0 cm 0 min 131.7 W/m² 1021.5 hPa
15:48 27.1 °C 13.1 °C 42 % 8 km/h (15 km/h) 0 mm0 mm 24.6 °C 23.6 °C 22.9 °C 21.9 °C 20000 m 0   0 cm 1 min 160.8 W/m² 1021.5 hPa
15:42 26.9 °C 13.3 °C 43 % 11 km/h (22 km/h) 0 mm0 mm 24.5 °C 23.5 °C 22.9 °C 21.8 °C 20000 m 0   0 cm 5 min 268 W/m² 1021.6 hPa
15:36 26.5 °C 12.5 °C 42 % 11 km/h (22 km/h) 0 mm0 mm 24.5 °C 23.5 °C 23 °C 21.9 °C 20000 m 0   0 cm 0 min 140.6 W/m² 1021.6 hPa
15:30 26.6 °C 12.6 °C 42 % 11 km/h (19 km/h) 0 mm0 mm 24.4 °C 23.5 °C 23 °C 21.9 °C 20000 m 0   0 cm 0 min 144.6 W/m² 1021.7 hPa
15:24 26.6 °C 12.6 °C 42 % 11 km/h (18 km/h) 0 mm0 mm 24.4 °C 23.5 °C 22.9 °C 21.8 °C 20000 m 0   0 cm 0 min 136 W/m² 1021.7 hPa
15:18 27.1 °C 13.1 °C 42 % 11 km/h (19 km/h) 0 mm0 mm 24.4 °C 23.5 °C 22.9 °C 21.8 °C 20000 m 0   0 cm 2 min 208.3 W/m² 1021.7 hPa
15:12 27.3 °C 13.3 °C 42 % 9 km/h (19 km/h) 0 mm0 mm 24.3 °C 23.4 °C 22.9 °C 21.8 °C 20000 m 0   0 cm 6 min 308.2 W/m² 1021.7 hPa
15:06 26.7 °C 13.1 °C 43 % 9 km/h (15 km/h) 0 mm0 mm 24.3 °C 23.4 °C 22.9 °C 21.8 °C 19960 m 0   0 cm 6 min 306.7 W/m² 1021.7 hPa
15:00 26 °C 13.1 °C 45 % 8 km/h (15 km/h) 0 mm0 mm 24.3 °C 23.4 °C 22.9 °C 21.8 °C 20000 m 0   0 cm 3 min 239.8 W/m² 1021.7 hPa
14:54 25.6 °C 12.4 °C 44 % 12 km/h (20 km/h) 0 mm0 mm 24.3 °C 23.5 °C 23 °C 21.9 °C 20000 m 0   0 cm 0 min 124.3 W/m² 1021.9 hPa
14:48 25.6 °C 12.4 °C 44 % 15 km/h (21 km/h) 0 mm0 mm 24.2 °C 23.4 °C 22.9 °C 21.8 °C 20000 m 0   0 cm 0 min 133.8 W/m² 1022 hPa
14:42 25.8 °C 12.3 °C 43 % 10 km/h (21 km/h) 0 mm0 mm 24.2 °C 23.4 °C 22.9 °C 21.8 °C 20000 m 0   0 cm 0 min 145.6 W/m² 1022 hPa
14:36 26.5 °C 12.9 °C 43 % 8 km/h (18 km/h) 0 mm0 mm 24.1 °C 23.4 °C 23 °C 21.8 °C 20000 m 0   0 cm 5 min 300.9 W/m² 1021.9 hPa
14:30 26.1 °C 13.6 °C 46 % 8 km/h (18 km/h) 0 mm0 mm 24.1 °C 23.4 °C 22.9 °C 21.8 °C 20000 m 0   0 cm 3 min 221.9 W/m² 1021.9 hPa
14:24 25.6 °C 13.8 °C 48 % 5 km/h (10 km/h) 0 mm0 mm 24.1 °C 23.4 °C 22.9 °C 21.8 °C 20000 m 0   0 cm 0 min 106.8 W/m² 1022 hPa
14:18 25.6 °C 13.8 °C 48 % 7 km/h (16 km/h) 0 mm0 mm 24.1 °C 23.4 °C 22.9 °C 21.8 °C 20000 m 0   0 cm 0 min 119.7 W/m² 1022 hPa
14:12 26 °C 14.1 °C 48 % 8 km/h (14 km/h) 0 mm0 mm 24 °C 23.4 °C 23 °C 21.8 °C 19930 m 0   0 cm 3 min 208.7 W/m² 1022.1 hPa
14:06 26.4 °C 14.5 °C 48 % 5 km/h (10 km/h) 0 mm0 mm 24 °C 23.3 °C 22.9 °C 21.8 °C 19930 m 0   0 cm 6 min 357.8 W/m² 1022.1 hPa
14:00 25.5 °C 13.7 °C 48 % 7 km/h (15 km/h) 0 mm0 mm 24 °C 23.4 °C 22.9 °C 21.9 °C 19940 m 0   0 cm 6 min 342.4 W/m² 1022.1 hPa
13:54 25 °C 13.9 °C 50 % 8 km/h (15 km/h) 0 mm0 mm 23.9 °C 23.4 °C 23 °C 21.9 °C 19990 m 0   0 cm 1 min 197.3 W/m² 1022.3 hPa
13:48 25.1 °C 13.3 °C 48 % 7 km/h (14 km/h) 0 mm0 mm 23.9 °C 23.3 °C 22.9 °C 21.8 °C 20000 m 0   0 cm 0 min 181.5 W/m² 1022.3 hPa
13:42 25.2 °C 13.7 °C 49 % 5 km/h (12 km/h) 0 mm0 mm 23.8 °C 23.3 °C 22.9 °C 21.8 °C 20000 m 0   0 cm 0 min 175 W/m² 1022.3 hPa
13:36 25 °C 13.2 °C 48 % 8 km/h (16 km/h) 0 mm0 mm 23.8 °C 23.3 °C 22.9 °C 21.8 °C 20000 m 0   0 cm 0 min 165.1 W/m² 1022.3 hPa
13:30 25 °C 12.9 °C 47 % 10 km/h (17 km/h) 0 mm0 mm 23.8 °C 23.3 °C 22.9 °C 21.8 °C 20000 m 0   0 cm 0 min 172.3 W/m² 1022.3 hPa
13:24 25.5 °C 13 °C 46 % 8 km/h (17 km/h) 0 mm0 mm 23.8 °C 23.3 °C 23 °C 21.9 °C 19660 m 0   0 cm 3 min 235.5 W/m² 1022.2 hPa
13:18 25.3 °C 13.5 °C 48 % 8 km/h (17 km/h) 0 mm0 mm 23.7 °C 23.3 °C 23 °C 21.8 °C 19660 m 0   0 cm 4 min 273.1 W/m² 1022.3 hPa
13:12 25.7 °C 13.2 °C 46 % 5 km/h (19 km/h) 0 mm0 mm 23.7 °C 23.3 °C 23 °C 21.8 °C 20000 m 0   0 cm 3 min 216 W/m² 1022.2 hPa
13:06 25.3 °C 13.8 °C 49 % 5 km/h (13 km/h) 0 mm0 mm 23.6 °C 23.3 °C 23 °C 21.9 °C 19790 m 0   0 cm 6 min 274.1 W/m² 1022.4 hPa
13:00 24.8 °C 12.7 °C 47 % 7 km/h (13 km/h) 0 mm0 mm 23.6 °C 23.3 °C 22.9 °C 21.8 °C 19790 m 0   0 cm 4 min 229.7 W/m² 1022.5 hPa
12:54 25 °C 12.6 °C 46 % 8 km/h (14 km/h) 0 mm0 mm 23.6 °C 23.3 °C 23 °C 21.9 °C 19880 m 0   0 cm 5 min 241.7 W/m² 1022.6 hPa
12:48 24.7 °C 12.9 °C 48 % 8 km/h (16 km/h) 0 mm0 mm 23.5 °C 23.3 °C 23 °C 21.8 °C 19880 m 0   0 cm 6 min 229.2 W/m² 1022.6 hPa
12:42 24.6 °C 13.5 °C 50 % 8 km/h (14 km/h) 0 mm0 mm 23.5 °C 23.3 °C 23 °C 21.8 °C 20000 m 0   0 cm 6 min 284.8 W/m² 1022.6 hPa
12:36 24.2 °C 13.4 °C 51 % 9 km/h (14 km/h) 0 mm0 mm 23.5 °C 23.3 °C 23 °C 21.9 °C 20000 m 0   0 cm 5 min 214.6 W/m² 1022.7 hPa
12:30 24.5 °C 14 °C 52 % 9 km/h (18 km/h) 0 mm0 mm 23.5 °C 23.3 °C 22.9 °C 21.8 °C 20000 m 0   0 cm 6 min 248.5 W/m² 1022.6 hPa
12:24 24.6 °C 13.5 °C 50 % 9 km/h (21 km/h) 0 mm0 mm 23.4 °C 23.3 °C 23 °C 21.8 °C 19770 m 0   0 cm 6 min 319.6 W/m² 1022.7 hPa
12:18 24.8 °C 15.1 °C 55 % 7 km/h (22 km/h) 0 mm0 mm 23.4 °C 23.3 °C 23 °C 21.8 °C 19890 m 0   0 cm 6 min 313.3 W/m² 1022.6 hPa
12:12 24.3 °C 14.7 °C 55 % 8 km/h (22 km/h) 0 mm0 mm 23.4 °C 23.3 °C 23 °C 21.8 °C 19900 m 0   0 cm 6 min 287.7 W/m² 1022.7 hPa
12:06 23.9 °C 13.7 °C 53 % 12 km/h (22 km/h) 0 mm0 mm 23.4 °C 23.3 °C 23 °C 21.8 °C 20000 m 0   0 cm 5 min 221 W/m² 1022.6 hPa
12:00 24.1 °C 14.2 °C 54 % 10 km/h (22 km/h) 0 mm0 mm 23.4 °C 23.3 °C 23 °C 21.9 °C 20000 m 0   0 cm 5 min 227 W/m² 1022.6 hPa
11:54 24 °C 14.4 °C 55 % 10 km/h (17 km/h) 0 mm0 mm 23.3 °C 23.3 °C 23 °C 21.8 °C 20000 m 0   0 cm 6 min 300.5 W/m² 1022.6 hPa
11:48 23.4 °C 14.4 °C 57 % 10 km/h (16 km/h) 0 mm0 mm 23.3 °C 23.3 °C 23 °C 21.8 °C 20000 m 0   0 cm 6 min 259.3 W/m² 1022.6 hPa
11:42 23.1 °C 14.1 °C 57 % 10 km/h (17 km/h) 0 mm0 mm 23.3 °C 23.3 °C 23 °C 21.9 °C 20000 m 0   0 cm 6 min 187.6 W/m² 1022.7 hPa
11:36 22.9 °C 14.2 °C 58 % 10 km/h (17 km/h) 0 mm0 mm 23.3 °C 23.3 °C 23 °C 21.9 °C 19980 m 0   0 cm 1 min 162.7 W/m² 1022.7 hPa
11:30 22.9 °C 14.2 °C 58 % 9 km/h (15 km/h) 0 mm0 mm 23.3 °C 23.3 °C 23 °C 21.8 °C 19980 m 0   0 cm 2 min 160.8 W/m² 1022.7 hPa
11:24 22.6 °C 13.9 °C 58 % 10 km/h (17 km/h) 0 mm0 mm 23.3 °C 23.3 °C 22.9 °C 21.8 °C 20000 m 0   0 cm 0 min 140.6 W/m² 1022.7 hPa
11:18 22.8 °C 14.1 °C 58 % 9 km/h (16 km/h) 0 mm0 mm 23.3 °C 23.3 °C 23 °C 21.8 °C 19900 m 0   0 cm 0 min 130.3 W/m² 1022.7 hPa
11:12 22.8 °C 14.4 °C 59 % 9 km/h (15 km/h) 0 mm0 mm 23.3 °C 23.4 °C 23 °C 21.9 °C 19900 m 0   0 cm 0 min 123.6 W/m² 1022.7 hPa
11:06 22.9 °C 15 °C 61 % 9 km/h (16 km/h) 0 mm0 mm 23.3 °C 23.3 °C 23 °C 21.9 °C 20000 m 0   0 cm 0 min 129 W/m² 1022.7 hPa
11:00 23 °C 14.8 °C 60 % 9 km/h (16 km/h) 0 mm0 mm 23.2 °C 23.3 °C 23 °C 21.8 °C 17860 m 0   0 cm 2 min 152.5 W/m² 1022.6 hPa
10:54 22.6 °C 15.2 °C 63 % 11 km/h (18 km/h) 0 mm0 mm 23.2 °C 23.3 °C 22.9 °C 21.8 °C 20000 m 0   0 cm 6 min 170.2 W/m² 1022.6 hPa
10:48 22.6 °C 14.2 °C 59 % 10 km/h (18 km/h) 0 mm0 mm 23.2 °C 23.4 °C 23 °C 21.8 °C 20000 m 0   0 cm 6 min 152.9 W/m² 1022.5 hPa
10:42 22.4 °C 14.3 °C 60 % 10 km/h (15 km/h) 0 mm0 mm 23.2 °C 23.4 °C 23 °C 21.9 °C 20000 m 0   0 cm 6 min 167.8 W/m² 1022.5 hPa
10:36 22.1 °C 14.7 °C 63 % 10 km/h (16 km/h) 0 mm0 mm 23.2 °C 23.4 °C 23 °C 21.9 °C 20000 m 0   0 cm 1 min 127.3 W/m² 1022.5 hPa
10:30 22 °C 14.4 °C 62 % 11 km/h (17 km/h) 0 mm0 mm 23.2 °C 23.4 °C 23 °C 21.8 °C 20000 m 0   0 cm 0 min 115.3 W/m² 1022.5 hPa
10:24 22.1 °C 15.2 °C 65 % 9 km/h (15 km/h) 0 mm0 mm 23.2 °C 23.4 °C 23 °C 21.8 °C 20000 m 0   0 cm 1 min 117.5 W/m² 1022.5 hPa
10:18 22.2 °C 15.8 °C 67 % 8 km/h (13 km/h) 0 mm0 mm 23.2 °C 23.4 °C 23 °C 21.9 °C 19200 m 0   0 cm 3 min 131.7 W/m² 1022.5 hPa
10:12 21.9 °C 16 °C 69 % 9 km/h (15 km/h) 0 mm0 mm 23.2 °C 23.3 °C 22.9 °C 21.8 °C 19200 m 0   0 cm 6 min 145.4 W/m² 1022.5 hPa
10:06 21.5 °C 15.6 °C 69 % 9 km/h (15 km/h) 0 mm0 mm 23.2 °C 23.4 °C 23 °C 21.9 °C 20000 m 0   0 cm 0 min 100.7 W/m² 1022.4 hPa
10:00 21.4 °C 15.7 °C 70 % 10 km/h (16 km/h) 0 mm0 mm 23.2 °C 23.4 °C 23 °C 21.9 °C 20000 m 0   0 cm 0 min 91.8 W/m² 1022.4 hPa
09:54 21.4 °C 15.9 °C 71 % 9 km/h (13 km/h) 0 mm0 mm 23.2 °C 23.4 °C 22.9 °C 21.8 °C 20000 m 0   0 cm 0 min 91.6 W/m² 1022.3 hPa
09:48 21.2 °C 15.7 °C 71 % 10 km/h (14 km/h) 0 mm0 mm 23.2 °C 23.4 °C 23 °C 21.9 °C 20000 m 0   0 cm 0 min 87.3 W/m² 1022.3 hPa
09:42 21 °C 15.8 °C 72 % 9 km/h (14 km/h) 0 mm0 mm 23.2 °C 23.4 °C 23 °C 21.9 °C 20000 m 0   0 cm 0 min 73.8 W/m² 1022.4 hPa
09:36 20.9 °C 15.7 °C 72 % 7 km/h (14 km/h) 0 mm0 mm 23.2 °C 23.4 °C 23 °C 21.9 °C 20000 m 0   0 cm 0 min 65.6 W/m² 1022.4 hPa
09:30 20.9 °C 16.1 °C 74 % 7 km/h (13 km/h) 0 mm0 mm 23.2 °C 23.4 °C 23 °C 21.9 °C 20000 m 0   0 cm 0 min 61.4 W/m² 1022.3 hPa
09:24 20.8 °C 16.2 °C 75 % 6 km/h (13 km/h) 0 mm0 mm 23.2 °C 23.4 °C 23 °C 21.9 °C 20000 m 0   0 cm 0 min 56.8 W/m² 1022.3 hPa
09:18 20.6 °C 16.2 °C 76 % 5 km/h (10 km/h) 0 mm0 mm 23.2 °C 23.5 °C 23 °C 21.9 °C 20000 m 0   0 cm 0 min 51.3 W/m² 1022.2 hPa
09:12 20.5 °C 16.3 °C 77 % 8 km/h (10 km/h) 0 mm0 mm 23.2 °C 23.4 °C 23 °C 21.9 °C 20000 m 0   0 cm 0 min 40 W/m² 1022.2 hPa
09:06 20.4 °C 16.4 °C 78 % 8 km/h (11 km/h) 0 mm0 mm 23.3 °C 23.5 °C 23 °C 21.9 °C 20000 m 0   0 cm 0 min 41 W/m² 1022.1 hPa
09:00 20.3 °C 16.3 °C 78 % 9 km/h (12 km/h) 0 mm0 mm 23.2 °C 23.5 °C 23 °C 21.9 °C 20000 m 0   0 cm 0 min 36.4 W/m² 1022.1 hPa
08:54 20.2 °C 16.2 °C 78 % 8 km/h (12 km/h) 0 mm0 mm 23.2 °C 23.5 °C 23 °C 21.9 °C 20000 m 0   0 cm 0 min 33.4 W/m² 1022 hPa
08:48 20.2 °C 16.4 °C 79 % 7 km/h (12 km/h) 0 mm0 mm 23.3 °C 23.5 °C 23 °C 21.8 °C 20000 m 0   0 cm 0 min 34.6 W/m² 1022 hPa
08:42 20.1 °C 16.3 °C 79 % 7 km/h (12 km/h) 0 mm0 mm 23.3 °C 23.5 °C 22.9 °C 21.8 °C 20000 m 0   0 cm 0 min 28.4 W/m² 1022 hPa
08:36 20 °C 16.4 °C 80 % 7 km/h (13 km/h) 0 mm0 mm 23.3 °C 23.5 °C 22.9 °C 21.8 °C 20000 m 0   0 cm 0 min 20.8 W/m² 1021.9 hPa
08:30 20 °C 16.4 °C 80 % 8 km/h (13 km/h) 0 mm0 mm 23.3 °C 23.5 °C 23 °C 21.9 °C 20000 m 0   0 cm 0 min 10.9 W/m² 1021.9 hPa
08:24 20 °C 16.4 °C 80 % 4 km/h (10 km/h) 0 mm0 mm 23.3 °C 23.5 °C 23 °C 21.9 °C 20000 m 0   0 cm 0 min 15.6 W/m² 1021.8 hPa
08:18 20 °C 16.4 °C 80 % 0 km/h (3 km/h) 0 mm0 mm 23.3 °C 23.5 °C 23 °C 21.9 °C 20000 m 0   0 cm 0 min 18.1 W/m² 1021.8 hPa
08:12 19.9 °C 16.5 °C 81 % 3 km/h (5 km/h) 0 mm0 mm 23.3 °C 23.5 °C 23 °C 21.9 °C 20000 m 0   0 cm 0 min 17.8 W/m² 1021.8 hPa
08:06 19.9 °C 16.5 °C 81 % 4 km/h (8 km/h) 0 mm0 mm 23.3 °C 23.5 °C 23 °C 21.8 °C 20000 m 0   0 cm 0 min 12.1 W/m² 1021.7 hPa
08:00 19.8 °C 16.2 °C 80 % 4 km/h (8 km/h) 0 mm0 mm 23.3 °C 23.5 °C 23 °C 21.9 °C 20000 m 0   0 cm 0 min 9.8 W/m² 1021.6 hPa
07:54 19.8 °C 16.2 °C 80 % 3 km/h (7 km/h) 0 mm0 mm 23.4 °C 23.5 °C 23 °C 21.9 °C 20000 m 0   0 cm 0 min 7.6 W/m² 1021.5 hPa
07:48 19.8 °C 16.2 °C 80 % 2 km/h (7 km/h) 0 mm0 mm 23.3 °C 23.5 °C 22.9 °C 21.8 °C 20000 m 0   0 cm 0 min 0 W/m² 1021.5 hPa
07:42 19.8 °C 16.1 °C 79 % 2 km/h (5 km/h) 0 mm0 mm 23.4 °C 23.6 °C 23 °C 21.9 °C 20000 m 0   0 cm 0 min 0 W/m² 1021.5 hPa
07:36 19.8 °C 16.2 °C 80 % 4 km/h (8 km/h) 0 mm0 mm 23.4 °C 23.6 °C 23 °C 21.9 °C 20000 m 0   0 cm 0 min 0 W/m² 1021.5 hPa
07:30 19.8 °C 16.1 °C 79 % 5 km/h (8 km/h) 0 mm0 mm 23.4 °C 23.6 °C 23 °C 21.8 °C 20000 m 0   0 cm 0 min 0 W/m² 1021.4 hPa
07:24 19.8 °C 16.1 °C 79 % 4 km/h (8 km/h) 0 mm0 mm 23.4 °C 23.6 °C 22.9 °C 21.8 °C 20000 m 0   0 cm 0 min 0 W/m² 1021.4 hPa
07:18 19.8 °C 16.1 °C 79 % 4 km/h (7 km/h) 0 mm0 mm 23.4 °C 23.6 °C 23 °C 21.9 °C 20000 m 0   0 cm 0 min 0 W/m² 1021.4 hPa
07:12 19.9 °C 16.1 °C 79 % 4 km/h (7 km/h) 0 mm0 mm 23.4 °C 23.6 °C 23 °C 21.9 °C 20000 m 0   0 cm 0 min 0 W/m² 1021.3 hPa
07:06 19.9 °C 15.9 °C 78 % 3 km/h (5 km/h) 0 mm0 mm 23.4 °C 23.6 °C 22.9 °C 21.8 °C 20000 m 0   0 cm 0 min 0 W/m² 1021.3 hPa
07:00 19.9 °C 15.9 °C 78 % 4 km/h (7 km/h) 0 mm0 mm 23.5 °C 23.6 °C 23 °C 21.9 °C 20000 m 0   0 cm 0 min 0 W/m² 1021.3 hPa
06:54 20 °C 16 °C 78 % 5 km/h (10 km/h) 0 mm0 mm 23.5 °C 23.6 °C 23 °C 21.9 °C 20000 m 0   0 cm 0 min 0 W/m² 1021.3 hPa
06:48 20 °C 16 °C 78 % 5 km/h (10 km/h) 0 mm0 mm 23.5 °C 23.6 °C 22.9 °C 21.9 °C 20000 m 0   0 cm 0 min 0 W/m² 1021.2 hPa
06:42 20 °C 16 °C 78 % 6 km/h (9 km/h) 0 mm0 mm 23.5 °C 23.6 °C 23 °C 21.9 °C 20000 m 0   0 cm 0 min 0 W/m² 1021.3 hPa
06:36 20 °C 16 °C 78 % 5 km/h (9 km/h) 0 mm0 mm 23.5 °C 23.6 °C 23 °C 21.9 °C 20000 m 0   0 cm 0 min 0 W/m² 1021.3 hPa
06:30 20 °C 15.8 °C 77 % 4 km/h (8 km/h) 0 mm0 mm 23.5 °C 23.6 °C 23 °C 21.9 °C 20000 m 0   0 cm 0 min 0 W/m² 1021.3 hPa
06:24 20.1 °C 15.9 °C 77 % 4 km/h (7 km/h) 0 mm0 mm 23.5 °C 23.6 °C 23 °C 21.9 °C 20000 m 0   0 cm 0 min 0 W/m² 1021.3 hPa
06:18 20.1 °C 15.9 °C 77 % 4 km/h (6 km/h) 0 mm0 mm 23.5 °C 23.7 °C 23 °C 21.9 °C 20000 m 0   0 cm 0 min 0 W/m² 1021.3 hPa
06:12 20.1 °C 15.9 °C 77 % 5 km/h (8 km/h) 0 mm0 mm 23.5 °C 23.7 °C 22.9 °C 21.9 °C 20000 m 0   0 cm 0 min 0 W/m² 1021.3 hPa
06:06 20.1 °C 15.9 °C 77 % 5 km/h (8 km/h) 0 mm0 mm 23.6 °C 23.7 °C 22.9 °C 21.8 °C 20000 m 0   0 cm 0 min 0 W/m² 1021.3 hPa
06:00 20.2 °C 15.8 °C 76 % 5 km/h (9 km/h) 0 mm0 mm 23.6 °C 23.7 °C 23 °C 21.9 °C 20000 m 0   0 cm 0 min 0 W/m² 1021.4 hPa
05:54 20.2 °C 16 °C 77 % 5 km/h (9 km/h) 0 mm0 mm 23.6 °C 23.7 °C 22.9 °C 21.8 °C 20000 m 0   0 cm 0 min 0 W/m² 1021.4 hPa
05:48 20.2 °C 15.8 °C 76 % 5 km/h (9 km/h) 0 mm0 mm 23.6 °C 23.7 °C 23 °C 21.9 °C 20000 m 0   0 cm 0 min 0 W/m² 1021.4 hPa
05:42 20.2 °C 15.8 °C 76 % 5 km/h (10 km/h) 0 mm0 mm 23.6 °C 23.8 °C 23 °C 21.9 °C 20000 m 0   0 cm 0 min 0 W/m² 1021.4 hPa
05:36 20.2 °C 15.8 °C 76 % 5 km/h (8 km/h) 0 mm0 mm 23.6 °C 23.7 °C 22.9 °C 21.9 °C 20000 m 0   0 cm 0 min 0 W/m² 1021.4 hPa
05:30 20.2 °C 15.8 °C 76 % 4 km/h (7 km/h) 0 mm0 mm 23.6 °C 23.7 °C 22.9 °C 21.9 °C 20000 m 0   0 cm 0 min 0 W/m² 1021.4 hPa
05:24 20.2 °C 15.8 °C 76 % 4 km/h (9 km/h) 0 mm0 mm 23.7 °C 23.7 °C 22.9 °C 21.8 °C 20000 m 0   0 cm 0 min 0 W/m² 1021.4 hPa
05:18 20.3 °C 15.9 °C 76 % 4 km/h (8 km/h) 0 mm0 mm 23.7 °C 23.7 °C 22.9 °C 21.9 °C 20000 m 0   0 cm 0 min 0 W/m² 1021.5 hPa
05:12 20.3 °C 15.7 °C 75 % 6 km/h (13 km/h) 0 mm0 mm 23.7 °C 23.8 °C 22.9 °C 21.9 °C 20000 m 0   0 cm 0 min 0 W/m² 1021.5 hPa
05:06 20.3 °C 15.7 °C 75 % 6 km/h (13 km/h) 0 mm0 mm 23.7 °C 23.8 °C 22.9 °C 21.9 °C 20000 m 0   0 cm 0 min 0 W/m² 1021.6 hPa
05:00 20.3 °C 15.7 °C 75 % 5 km/h (12 km/h) 0 mm0 mm 23.7 °C 23.8 °C 22.9 °C 21.8 °C 20000 m 0   0 cm 0 min 0 W/m² 1021.6 hPa
04:54 20.4 °C 15.8 °C 75 % 6 km/h (12 km/h) 0 mm0 mm 23.7 °C 23.8 °C 22.9 °C 21.8 °C 20000 m 0   0 cm 0 min 0 W/m² 1021.6 hPa
04:48 20.4 °C 15.8 °C 75 % 6 km/h (11 km/h) 0 mm0 mm 23.8 °C 23.8 °C 22.9 °C 21.9 °C 20000 m 0   0 cm 0 min 0 W/m² 1021.5 hPa
04:42 20.4 °C 15.8 °C 75 % 7 km/h (13 km/h) 0 mm0 mm 23.8 °C 23.8 °C 22.9 °C 21.8 °C 20000 m 0   0 cm 0 min 0 W/m² 1021.5 hPa
04:36 20.4 °C 15.6 °C 74 % 6 km/h (12 km/h) 0 mm0 mm 23.8 °C 23.8 °C 22.9 °C 21.8 °C 20000 m 0   0 cm 0 min 0 W/m² 1021.4 hPa
04:30 20.4 °C 15.6 °C 74 % 6 km/h (9 km/h) 0 mm0 mm 23.8 °C 23.8 °C 22.9 °C 21.9 °C 20000 m 0   0 cm 0 min 0 W/m² 1021.4 hPa
04:24 20.4 °C 15.6 °C 74 % 5 km/h (8 km/h) 0 mm0 mm 23.8 °C 23.8 °C 22.9 °C 21.8 °C 20000 m 0   0 cm 0 min 0 W/m² 1021.4 hPa
04:18 20.4 °C 15.6 °C 74 % 4 km/h (8 km/h) 0 mm0 mm 23.9 °C 23.8 °C 22.9 °C 21.9 °C 20000 m 0   0 cm 0 min 0 W/m² 1021.4 hPa
04:12 20.4 °C 15.6 °C 74 % 4 km/h (6 km/h) 0 mm0 mm 23.8 °C 23.8 °C 22.9 °C 21.9 °C 19990 m 0   0 cm 0 min 0 W/m² 1021.4 hPa
04:06 20.5 °C 15.7 °C 74 % 4 km/h (6 km/h) 0 mm0 mm 23.9 °C 23.8 °C 22.9 °C 21.9 °C 19990 m 0   0 cm 0 min 0 W/m² 1021.5 hPa
04:00 20.5 °C 15.7 °C 74 % 4 km/h (8 km/h) 0 mm0 mm 23.9 °C 23.8 °C 22.9 °C 21.9 °C 20000 m 0   0 cm 0 min 0 W/m² 1021.5 hPa
03:54 20.5 °C 15.7 °C 74 % 6 km/h (12 km/h) 0 mm0 mm 23.9 °C 23.9 °C 22.9 °C 21.9 °C 20000 m 0   0 cm 0 min 0 W/m² 1021.4 hPa
03:48 20.5 °C 15.7 °C 74 % 5 km/h (12 km/h) 0 mm0 mm 23.9 °C 23.9 °C 22.9 °C 21.9 °C 20000 m 0   0 cm 0 min 0 W/m² 1021.5 hPa
03:42 20.6 °C 15.8 °C 74 % 6 km/h (11 km/h) 0 mm0 mm 23.9 °C 23.8 °C 22.9 °C 21.9 °C 20000 m 0   0 cm 0 min 0 W/m² 1021.4 hPa
03:36 20.6 °C 15.8 °C 74 % 6 km/h (12 km/h) 0 mm0 mm 23.9 °C 23.8 °C 22.9 °C 21.8 °C 20000 m 0   0 cm 0 min 0 W/m² 1021.4 hPa
03:30 20.6 °C 15.8 °C 74 % 6 km/h (13 km/h) 0 mm0 mm 23.9 °C 23.9 °C 22.9 °C 21.9 °C 20000 m 0   0 cm 0 min 0 W/m² 1021.4 hPa
03:24 20.6 °C 15.6 °C 73 % 6 km/h (13 km/h) 0 mm0 mm 23.9 °C 23.9 °C 22.9 °C 21.9 °C 20000 m 0   0 cm 0 min 0 W/m² 1021.4 hPa
03:18 20.7 °C 15.7 °C 73 % 7 km/h (13 km/h) 0 mm0 mm 24 °C 23.9 °C 22.9 °C 21.8 °C 20000 m 0   0 cm 0 min 0 W/m² 1021.3 hPa
03:12 20.7 °C 15.7 °C 73 % 8 km/h (13 km/h) 0 mm0 mm 24 °C 23.9 °C 22.9 °C 21.9 °C 20000 m 0   0 cm 0 min 0 W/m² 1021.4 hPa
03:06 20.7 °C 15.7 °C 73 % 8 km/h (13 km/h) 0 mm0 mm 24 °C 23.9 °C 22.9 °C 21.9 °C 20000 m 0   0 cm 0 min 0 W/m² 1021.3 hPa
03:00 20.8 °C 15.6 °C 72 % 9 km/h (13 km/h) 0 mm0 mm 24 °C 23.9 °C 22.9 °C 21.9 °C 20000 m 0   0 cm 0 min 0 W/m² 1021.4 hPa
02:54 20.8 °C 15.6 °C 72 % 9 km/h (15 km/h) 0 mm0 mm 24 °C 23.9 °C 22.9 °C 21.9 °C 20000 m 0   0 cm 0 min 0 W/m² 1021.4 hPa
02:48 20.8 °C 15.6 °C 72 % 10 km/h (17 km/h) 0 mm0 mm 24.1 °C 23.9 °C 22.9 °C 21.9 °C 20000 m 0   0 cm 0 min 0 W/m² 1021.2 hPa
02:42 20.8 °C 15.6 °C 72 % 9 km/h (17 km/h) 0 mm0 mm 24.1 °C 23.9 °C 22.9 °C 21.9 °C 20000 m 0   0 cm 0 min 0 W/m² 1021.4 hPa
02:36 20.9 °C 15.9 °C 73 % 8 km/h (12 km/h) 0 mm0 mm 24.1 °C 23.9 °C 22.9 °C 21.8 °C 20000 m 0   0 cm 0 min 0 W/m² 1021.2 hPa
02:30 20.9 °C 15.9 °C 73 % 9 km/h (13 km/h) 0 mm0 mm 24.1 °C 23.9 °C 22.9 °C 21.9 °C 20000 m 0   0 cm 0 min 0 W/m² 1021.2 hPa
02:24 20.9 °C 15.9 °C 73 % 9 km/h (13 km/h) 0 mm0 mm 24.1 °C 23.9 °C 22.9 °C 21.9 °C 20000 m 0   0 cm 0 min 0 W/m² 1021.2 hPa
02:18 21 °C 16 °C 73 % 7 km/h (12 km/h) 0 mm0 mm 24.1 °C 24 °C 22.9 °C 21.8 °C 20000 m 0   0 cm 0 min 0 W/m² 1021.2 hPa
02:12 21 °C 16 °C 73 % 7 km/h (12 km/h) 0 mm0 mm 24.1 °C 24 °C 22.9 °C 21.9 °C 20000 m 0   0 cm 0 min 0 W/m² 1021.3 hPa
02:06 21 °C 15.8 °C 72 % 8 km/h (12 km/h) 0 mm0 mm 24.2 °C 24 °C 22.9 °C 21.9 °C 20000 m 0   0 cm 0 min 0 W/m² 1021.2 hPa
02:00 21.1 °C 16.1 °C 73 % 7 km/h (12 km/h) 0 mm0 mm 24.2 °C 24 °C 22.9 °C 21.9 °C 20000 m 0   0 cm 0 min 0 W/m² 1021.2 hPa
01:54 21.1 °C 16.1 °C 73 % 5 km/h (9 km/h) 0 mm0 mm 24.2 °C 24 °C 22.9 °C 21.9 °C 20000 m 0   0 cm 0 min 0 W/m² 1021.2 hPa
01:48 21.1 °C 16.1 °C 73 % 5 km/h (9 km/h) 0 mm0 mm 24.2 °C 24 °C 22.9 °C 21.9 °C 20000 m 0   0 cm 0 min 0 W/m² 1021.2 hPa
01:42 21.1 °C 16.1 °C 73 % 5 km/h (12 km/h) 0 mm0 mm 24.2 °C 24 °C 22.9 °C 21.9 °C 20000 m 0   0 cm 0 min 0 W/m² 1021.1 hPa
01:36 21.2 °C 15.9 °C 72 % 5 km/h (12 km/h) 0 mm0 mm 24.2 °C 24 °C 22.9 °C 21.9 °C 20000 m 0   0 cm 0 min 0 W/m² 1021.2 hPa
01:30 21.2 °C 15.9 °C 72 % 7 km/h (13 km/h) 0 mm0 mm 24.3 °C 24 °C 22.9 °C 21.9 °C 20000 m 0   0 cm 0 min 0 W/m² 1021.2 hPa
01:24 21.2 °C 15.9 °C 72 % 8 km/h (15 km/h) 0 mm0 mm 24.3 °C 24 °C 22.9 °C 21.9 °C 20000 m 0   0 cm 0 min 0 W/m² 1021.1 hPa
01:18 21.3 °C 16 °C 72 % 8 km/h (16 km/h) 0 mm0 mm 24.3 °C 24 °C 22.9 °C 21.9 °C 20000 m 0   0 cm 0 min 0 W/m² 1021.1 hPa
01:12 21.3 °C 16 °C 72 % 7 km/h (16 km/h) 0 mm0 mm 24.3 °C 24 °C 22.9 °C 21.9 °C 20000 m 0   0 cm 0 min 0 W/m² 1021.1 hPa
01:06 21.3 °C 16 °C 72 % 7 km/h (12 km/h) 0 mm0 mm 24.3 °C 24 °C 22.9 °C 21.9 °C 20000 m 0   0 cm 0 min 0 W/m² 1021 hPa
01:00 21.3 °C 16 °C 72 % 8 km/h (14 km/h) 0 mm0 mm 24.4 °C 24.1 °C 22.9 °C 21.9 °C 20000 m 0   0 cm 0 min 0 W/m² 1021 hPa
00:54 21.4 °C 16.1 °C 72 % 6 km/h (14 km/h) 0 mm0 mm 24.4 °C 24 °C 22.9 °C 21.9 °C 20000 m 0   0 cm 0 min 0 W/m² 1021 hPa
00:48 21.4 °C 16.6 °C 74 % 6 km/h (13 km/h) 0 mm0 mm 24.4 °C 24 °C 22.9 °C 21.9 °C 20000 m 0   0 cm 0 min 0 W/m² 1021 hPa
00:42 21.4 °C 16.1 °C 72 % 7 km/h (13 km/h) 0 mm0 mm 24.4 °C 24 °C 22.8 °C 21.8 °C 20000 m 0   0 cm 0 min 0 W/m² 1021 hPa
00:36 21.4 °C 16.6 °C 74 % 5 km/h (8 km/h) 0 mm0 mm 24.4 °C 24 °C 22.8 °C 21.9 °C 20000 m 0   0 cm 0 min 0 W/m² 1020.9 hPa
00:30 21.4 °C 16.6 °C 74 % 6 km/h (10 km/h) 0 mm0 mm 24.4 °C 24.1 °C 22.9 °C 21.9 °C 20000 m 0   0 cm 0 min 0 W/m² 1020.9 hPa
00:24 21.4 °C 16.6 °C 74 % 8 km/h (11 km/h) 0 mm0 mm 24.4 °C 24.1 °C 22.9 °C 21.9 °C 20000 m 0   0 cm 0 min 0 W/m² 1020.9 hPa
00:18 21.5 °C 16.5 °C 73 % 9 km/h (17 km/h) 0 mm0 mm 24.5 °C 24.1 °C 22.9 °C 21.9 °C 20000 m 0   0 cm 0 min 0 W/m² 1020.8 hPa
00:12 21.5 °C 16.5 °C 73 % 10 km/h (17 km/h) 0 mm0 mm 24.5 °C 24.1 °C 22.9 °C 21.9 °C 20000 m 0   0 cm 0 min 0 W/m² 1020.7 hPa
00:06 21.5 °C 16.5 °C 73 % 8 km/h (15 km/h) 0 mm0 mm 24.5 °C 24.1 °C 22.9 °C 21.9 °C 20000 m 0   0 cm 0 min 0 W/m² 1020.7 hPa
00:00 21.5 °C 16.9 °C 75 % 8 km/h (13 km/h) 0 mm0 mm 24.5 °C 24.1 °C 22.8 °C 21.9 °C 20000 m 0   0 cm 0 min 0 W/m² 1020.7 hPa

Données via Météo-France

Relevés météo à Auch

Cette page rassemble les observations de la station de Auch : température, humidité, vent, précipitations et pression atmosphérique. Les graphiques facilitent le suivi de la journée, tandis que le tableau donne accès aux mesures horaires et infra-horaires disponibles.

Pour replacer ces mesures dans leur contexte, consultez la climatologie de Auch ainsi que ses normales et records. Retrouvez aussi la carte des observations météo en temps réel.